createdAt,value
2022-10-13T00:01:09.079Z,0.10
2022-10-13T00:03:38.076Z,0.10
2022-10-13T00:06:08.426Z,0.10
2022-10-13T00:08:38.216Z,0.10
2022-10-13T00:11:12.071Z,0.10
2022-10-13T00:13:40.397Z,0.20
2022-10-13T00:16:10.110Z,0.10
2022-10-13T00:18:38.398Z,0.73
2022-10-13T00:21:09.247Z,0.10
2022-10-13T00:23:39.282Z,0.10
2022-10-13T00:26:09.690Z,0.10
2022-10-13T00:28:38.110Z,0.10
2022-10-13T00:31:15.210Z,0.10
2022-10-13T00:33:43.165Z,0.10
2022-10-13T00:36:11.252Z,0.10
2022-10-13T00:38:41.603Z,0.10
2022-10-13T00:41:09.624Z,0.10
2022-10-13T00:44:00.194Z,0.10
2022-10-13T00:46:29.898Z,0.20
2022-10-13T00:49:01.941Z,0.10
2022-10-13T00:51:35.373Z,0.10
2022-10-13T00:54:06.931Z,0.10
2022-10-13T00:56:37.983Z,0.10
2022-10-13T00:59:10.335Z,0.32
2022-10-13T01:01:40.454Z,0.10
2022-10-13T01:04:08.439Z,0.10
2022-10-13T01:06:36.331Z,0.10
2022-10-13T01:09:05.698Z,0.10
2022-10-13T01:11:49.568Z,0.10
2022-10-13T01:14:25.002Z,0.10
2022-10-13T01:17:03.218Z,0.10
2022-10-13T01:19:55.333Z,0.10
2022-10-13T01:22:40.572Z,0.10
2022-10-13T01:25:28.593Z,0.10
2022-10-13T01:28:24.572Z,0.10
2022-10-13T01:31:03.244Z,0.20
2022-10-13T01:33:40.521Z,0.10
2022-10-13T01:36:18.896Z,0.10
2022-10-13T01:38:54.082Z,0.10
2022-10-13T01:41:29.690Z,0.10
2022-10-13T01:44:05.150Z,0.10
2022-10-13T01:46:38.038Z,0.10
2022-10-13T01:49:09.883Z,0.10
2022-10-13T01:51:39.890Z,0.15
2022-10-13T01:54:08.375Z,0.10
2022-10-13T01:56:36.256Z,0.10
2022-10-13T01:59:09.844Z,0.20
2022-10-13T02:01:52.197Z,0.10
2022-10-13T02:04:32.255Z,0.05
2022-10-13T02:07:08.927Z,0.10
2022-10-13T02:09:45.497Z,0.10
2022-10-13T02:12:20.241Z,0.10
2022-10-13T02:14:50.704Z,0.10
2022-10-13T02:17:21.285Z,0.10
2022-10-13T02:19:49.250Z,0.10
2022-10-13T02:22:18.839Z,0.10
2022-10-13T02:24:46.908Z,0.10
2022-10-13T02:27:15.173Z,0.10
2022-10-13T02:29:54.328Z,0.20
2022-10-13T02:32:24.140Z,0.10
2022-10-13T02:34:54.257Z,0.10
2022-10-13T02:37:22.176Z,0.88
2022-10-13T02:39:50.097Z,0.10
2022-10-13T02:42:18.566Z,0.10
2022-10-13T02:44:47.073Z,0.20
2022-10-13T02:47:14.982Z,0.10
2022-10-13T02:49:44.193Z,0.10
2022-10-13T02:52:12.117Z,0.15
2022-10-13T02:54:43.079Z,0.10
2022-10-13T02:57:10.899Z,0.10
2022-10-13T02:59:38.738Z,0.32
2022-10-13T03:02:06.624Z,0.10
2022-10-13T03:04:36.154Z,0.10
2022-10-13T03:07:05.763Z,0.10
2022-10-13T03:09:33.689Z,0.10
2022-10-13T03:12:01.677Z,0.30
2022-10-13T03:14:30.878Z,0.10
2022-10-13T03:16:58.811Z,0.15
2022-10-13T03:19:26.794Z,0.10
2022-10-13T03:21:55.283Z,0.10
2022-10-13T03:24:24.557Z,0.10
2022-10-13T03:26:52.486Z,0.63
2022-10-13T03:29:21.153Z,0.30
2022-10-13T03:31:49.088Z,0.10
2022-10-13T03:34:17.795Z,0.20
2022-10-13T03:36:45.718Z,0.10
2022-10-13T03:39:13.806Z,0.30
2022-10-13T03:41:43.423Z,0.10
2022-10-13T03:44:13.572Z,0.20
2022-10-13T03:46:41.675Z,0.10
2022-10-13T03:49:11.224Z,0.10
2022-10-13T03:51:39.419Z,0.10
2022-10-13T03:54:08.777Z,0.10
2022-10-13T03:56:38.429Z,0.30
2022-10-13T03:59:08.468Z,0.22
2022-10-13T04:01:36.656Z,0.10
2022-10-13T04:04:04.705Z,0.10
2022-10-13T04:06:32.950Z,0.10
2022-10-13T04:09:00.880Z,0.20
2022-10-13T04:11:28.781Z,0.20
2022-10-13T04:13:57.320Z,0.45
2022-10-13T04:16:28.268Z,0.15
2022-10-13T04:19:00.303Z,0.15
2022-10-13T04:21:29.217Z,0.30
2022-10-13T04:23:58.312Z,0.43
2022-10-13T04:26:28.639Z,0.28
2022-10-13T04:28:57.329Z,0.20
2022-10-13T04:31:28.869Z,0.20
2022-10-13T04:33:57.103Z,0.20
2022-10-13T04:36:25.231Z,0.17
2022-10-13T04:38:54.149Z,0.30
2022-10-13T04:41:22.873Z,0.28
2022-10-13T04:43:51.526Z,0.20
2022-10-13T04:46:21.035Z,0.70
2022-10-13T04:48:51.391Z,0.50
2022-10-13T04:51:22.989Z,0.30
2022-10-13T04:53:55.831Z,0.40
2022-10-13T04:56:23.707Z,0.30
2022-10-13T04:58:51.919Z,0.28
2022-10-13T05:01:22.768Z,0.28
2022-10-13T05:03:54.244Z,0.35
2022-10-13T05:06:24.581Z,0.45
2022-10-13T05:08:57.038Z,0.35
2022-10-13T05:11:25.524Z,0.43
2022-10-13T05:13:53.912Z,0.30
2022-10-13T05:16:22.870Z,0.28
2022-10-13T05:18:52.004Z,0.30
2022-10-13T05:21:23.983Z,0.25
2022-10-13T05:23:54.285Z,0.38
2022-10-13T05:26:23.789Z,0.32
2022-10-13T05:28:51.931Z,0.20
2022-10-13T05:31:21.890Z,0.30
2022-10-13T05:33:51.773Z,0.57
2022-10-13T05:36:26.495Z,0.30
2022-10-13T05:38:56.043Z,0.20
2022-10-13T05:41:25.462Z,0.25
2022-10-13T05:43:57.400Z,0.40
2022-10-13T05:46:25.849Z,0.55
2022-10-13T05:48:54.161Z,0.93
2022-10-13T05:51:27.059Z,0.35
2022-10-13T05:54:02.951Z,0.95
2022-10-13T05:56:33.930Z,0.30
2022-10-13T05:59:05.896Z,0.73
2022-10-13T06:01:37.817Z,0.65
2022-10-13T06:04:10.881Z,0.40
2022-10-13T06:06:40.852Z,0.30
2022-10-13T06:09:09.068Z,0.60
2022-10-13T06:11:37.036Z,0.30
2022-10-13T06:14:05.140Z,0.52
2022-10-13T06:16:33.333Z,0.35
2022-10-13T06:19:01.527Z,0.40
2022-10-13T06:21:29.548Z,0.38
2022-10-13T06:23:58.912Z,0.20
2022-10-13T06:26:26.919Z,0.40
2022-10-13T06:28:59.339Z,0.20
2022-10-13T06:31:28.876Z,0.40
2022-10-13T06:33:56.917Z,1.15
2022-10-13T06:36:24.883Z,0.50
2022-10-13T06:38:52.987Z,0.40
2022-10-13T06:41:23.718Z,0.40
2022-10-13T06:43:51.690Z,0.68
2022-10-13T06:46:19.553Z,0.30
2022-10-13T06:48:50.521Z,0.70
2022-10-13T06:51:18.733Z,0.30
2022-10-13T06:53:47.275Z,0.22
2022-10-13T06:56:15.611Z,0.32
2022-10-13T06:58:44.910Z,0.50
2022-10-13T07:01:15.018Z,0.30
2022-10-13T07:03:43.537Z,0.70
2022-10-13T07:06:11.797Z,0.30
2022-10-13T07:08:39.889Z,0.60
2022-10-13T07:11:14.521Z,0.22
2022-10-13T07:13:47.035Z,0.38
2022-10-13T07:16:17.042Z,0.82
2022-10-13T07:18:45.362Z,0.43
2022-10-13T07:21:13.268Z,0.47
2022-10-13T07:23:41.547Z,0.45
2022-10-13T07:26:10.077Z,0.52
2022-10-13T07:28:38.066Z,0.60
2022-10-13T07:31:11.892Z,0.40
2022-10-13T07:33:40.174Z,0.50
2022-10-13T07:36:08.960Z,0.20
2022-10-13T07:38:37.214Z,0.40
2022-10-13T07:41:07.111Z,0.35
2022-10-13T07:43:35.540Z,0.40
2022-10-13T07:46:07.071Z,0.60
2022-10-13T07:48:37.050Z,0.35
2022-10-13T07:51:07.303Z,0.43
2022-10-13T07:53:36.227Z,0.38
2022-10-13T07:56:05.915Z,0.20
2022-10-13T07:58:33.942Z,0.30
2022-10-13T08:01:02.945Z,0.75
2022-10-13T08:03:32.731Z,0.20
2022-10-13T08:06:03.253Z,0.68
2022-10-13T08:08:31.831Z,0.43
2022-10-13T08:11:03.021Z,0.30
2022-10-13T08:13:33.717Z,0.38
2022-10-13T08:16:11.411Z,0.50
2022-10-13T08:18:39.381Z,0.30
2022-10-13T08:24:02.782Z,0.40
2022-10-13T08:26:30.904Z,0.30
2022-10-13T08:31:47.113Z,0.38
2022-10-13T08:34:15.105Z,0.20
2022-10-13T08:36:44.340Z,0.43
2022-10-13T08:39:13.952Z,0.40
2022-10-13T08:41:44.856Z,0.38
2022-10-13T08:47:16.333Z,0.15
2022-10-13T08:49:46.279Z,0.22
2022-10-13T08:52:20.863Z,0.77
2022-10-13T08:54:49.885Z,0.22
2022-10-13T08:57:19.540Z,0.20
2022-10-13T08:59:48.068Z,0.20
2022-10-13T09:02:24.961Z,1.02
2022-10-13T09:04:54.288Z,0.32
2022-10-13T09:07:27.629Z,0.30
2022-10-13T09:09:57.072Z,0.17
2022-10-13T09:12:26.363Z,0.30
2022-10-13T09:15:01.361Z,0.30
2022-10-13T09:17:30.612Z,0.20
2022-10-13T09:20:05.559Z,0.20
2022-10-13T09:22:36.476Z,0.38
2022-10-13T09:25:19.210Z,0.55
2022-10-13T09:27:51.722Z,0.20
2022-10-13T09:30:27.689Z,0.17
2022-10-13T09:33:15.069Z,0.10
2022-10-13T09:35:45.439Z,0.10
2022-10-13T09:38:19.916Z,0.10
2022-10-13T09:40:59.657Z,0.15
2022-10-13T09:43:33.679Z,0.20
2022-10-13T09:46:03.524Z,0.10
2022-10-13T09:48:34.416Z,0.10
2022-10-13T09:51:02.901Z,0.10
2022-10-13T09:53:35.108Z,0.10
2022-10-13T09:56:21.987Z,0.10
2022-10-13T09:58:56.979Z,0.10
2022-10-13T10:01:33.887Z,0.10
2022-10-13T10:04:05.248Z,0.10
2022-10-13T10:06:33.338Z,0.52
2022-10-13T10:09:11.769Z,0.10
2022-10-13T10:11:42.676Z,0.10
2022-10-13T10:14:18.471Z,0.10
2022-10-13T10:16:51.923Z,0.10
2022-10-13T10:19:25.871Z,0.15
2022-10-13T10:22:04.284Z,0.15
2022-10-13T10:24:45.918Z,0.10
2022-10-13T10:29:54.093Z,0.15
2022-10-13T10:32:43.431Z,0.10
2022-10-13T10:35:15.592Z,0.10
2022-10-13T10:38:05.080Z,0.10
2022-10-13T10:40:51.806Z,0.10
2022-10-13T10:43:39.614Z,0.10
2022-10-13T10:46:17.064Z,0.10
2022-10-13T10:48:47.575Z,0.10
2022-10-13T10:51:16.151Z,0.10
2022-10-13T10:53:53.612Z,0.20
2022-10-13T10:56:31.516Z,0.10
2022-10-13T10:59:14.133Z,0.10
2022-10-13T11:01:47.552Z,0.10
2022-10-13T11:04:36.367Z,0.10
2022-10-13T11:07:04.650Z,0.13
2022-10-13T11:10:18.333Z,0.25
2022-10-13T11:13:16.464Z,0.10
2022-10-13T11:15:46.409Z,0.10
2022-10-13T11:18:51.825Z,0.10
2022-10-13T11:21:19.955Z,0.63
2022-10-13T11:23:49.738Z,0.10
2022-10-13T11:26:32.775Z,0.10
2022-10-13T11:29:02.071Z,0.10
2022-10-13T11:31:36.139Z,0.10
2022-10-13T11:34:04.938Z,0.10
2022-10-13T11:36:56.771Z,0.10
2022-10-13T11:39:59.261Z,0.10
2022-10-13T11:42:47.533Z,0.45
2022-10-13T11:45:39.431Z,0.10
2022-10-13T11:48:55.302Z,0.10
2022-10-13T11:51:39.555Z,0.03
2022-10-13T11:54:23.421Z,0.10
2022-10-13T11:56:53.283Z,0.10
2022-10-13T11:59:23.452Z,0.25
2022-10-13T12:01:57.986Z,0.00
2022-10-13T12:04:29.783Z,0.10
2022-10-13T12:07:02.031Z,0.10
2022-10-13T12:09:37.151Z,0.10
2022-10-13T12:12:20.174Z,0.00
2022-10-13T12:14:55.677Z,0.10
2022-10-13T12:17:31.187Z,0.00
2022-10-13T12:20:01.981Z,0.10
2022-10-13T12:22:30.216Z,0.10
2022-10-13T12:25:00.168Z,0.00
2022-10-13T12:27:32.502Z,0.00
2022-10-13T12:30:00.822Z,0.10
2022-10-13T12:32:32.409Z,0.10
2022-10-13T12:35:17.003Z,0.10
2022-10-13T12:37:45.246Z,0.10
2022-10-13T12:40:15.485Z,0.17
2022-10-13T12:42:44.859Z,0.00
2022-10-13T12:45:18.261Z,0.00
2022-10-13T12:47:52.536Z,0.00
2022-10-13T12:50:38.833Z,0.10
2022-10-13T12:53:13.574Z,0.05
2022-10-13T12:55:50.733Z,0.00
2022-10-13T12:58:23.805Z,0.10
2022-10-13T13:01:05.248Z,0.10
2022-10-13T13:03:37.185Z,0.00
2022-10-13T13:06:26.511Z,0.00
2022-10-13T13:09:21.843Z,0.10
2022-10-13T13:11:50.562Z,0.00
2022-10-13T13:14:45.743Z,0.00
2022-10-13T13:17:17.520Z,0.00
2022-10-13T13:19:58.263Z,0.00
2022-10-13T13:22:26.932Z,0.00
2022-10-13T13:24:55.218Z,0.00
2022-10-13T13:27:27.306Z,0.10
2022-10-13T13:29:56.402Z,0.10
2022-10-13T13:32:28.089Z,0.20
2022-10-13T13:34:57.518Z,0.00
2022-10-13T13:37:30.974Z,0.00
2022-10-13T13:39:59.008Z,0.00
2022-10-13T13:42:28.891Z,0.10
2022-10-13T13:44:57.490Z,0.00
2022-10-13T13:47:27.148Z,0.00
2022-10-13T13:49:56.216Z,0.00
2022-10-13T13:52:26.428Z,0.00
2022-10-13T13:54:56.191Z,0.00
2022-10-13T13:57:24.277Z,0.00
2022-10-13T13:59:54.866Z,0.00
2022-10-13T14:02:23.333Z,0.10
2022-10-13T14:04:51.468Z,0.15
2022-10-13T14:07:20.830Z,0.00
2022-10-13T14:09:51.966Z,0.00
2022-10-13T14:12:20.131Z,0.00
2022-10-13T14:14:48.951Z,0.00
2022-10-13T14:17:19.384Z,0.00
2022-10-13T14:19:47.401Z,0.00
2022-10-13T14:22:15.412Z,0.00
2022-10-13T14:24:43.728Z,0.00
2022-10-13T14:27:13.494Z,0.00
2022-10-13T14:29:41.634Z,0.00
2022-10-13T14:32:09.601Z,0.00
2022-10-13T14:34:37.563Z,0.00
2022-10-13T14:37:05.461Z,0.00
2022-10-13T14:39:33.424Z,0.00
2022-10-13T14:42:01.473Z,0.00
2022-10-13T14:44:30.808Z,0.00
2022-10-13T14:46:58.811Z,0.00
2022-10-13T14:49:26.969Z,0.00
2022-10-13T14:51:55.011Z,0.00
2022-10-13T14:54:23.001Z,0.00
2022-10-13T14:56:51.005Z,0.00
2022-10-13T14:59:19.110Z,0.00
2022-10-13T15:01:50.569Z,0.10
2022-10-13T15:04:18.733Z,0.08
2022-10-13T15:06:46.693Z,0.00
2022-10-13T15:09:14.688Z,0.00
2022-10-13T15:11:42.726Z,0.17
2022-10-13T15:14:10.917Z,0.00
2022-10-13T15:16:38.852Z,0.10
2022-10-13T15:19:08.240Z,0.00
2022-10-13T15:21:36.157Z,0.10
2022-10-13T15:24:04.633Z,0.00
2022-10-13T15:26:33.739Z,0.00
2022-10-13T15:29:01.828Z,0.08
2022-10-13T15:31:31.157Z,0.00
2022-10-13T15:33:59.171Z,0.22
2022-10-13T15:36:28.533Z,0.00
2022-10-13T15:38:56.497Z,0.00
2022-10-13T15:41:25.525Z,0.45
2022-10-13T15:43:53.842Z,0.00
2022-10-13T15:46:26.257Z,0.10
2022-10-13T15:48:55.562Z,0.10
2022-10-13T15:51:27.080Z,0.08
2022-10-13T15:53:56.689Z,0.00
2022-10-13T15:56:24.605Z,0.10
2022-10-13T15:58:52.669Z,0.10
2022-10-13T16:01:20.829Z,0.10
2022-10-13T16:03:49.046Z,0.10
2022-10-13T16:06:17.083Z,0.10
2022-10-13T16:08:45.108Z,0.10
2022-10-13T16:11:17.769Z,0.00
2022-10-13T16:13:47.779Z,0.08
2022-10-13T16:16:16.370Z,0.40
2022-10-13T16:18:45.074Z,0.10
2022-10-13T16:21:18.471Z,0.10
2022-10-13T16:23:47.231Z,0.20
2022-10-13T16:26:18.510Z,0.10
2022-10-13T16:28:47.215Z,0.10
2022-10-13T16:31:17.618Z,0.30
2022-10-13T16:33:46.565Z,0.10
2022-10-13T16:36:16.019Z,0.03
2022-10-13T16:38:44.080Z,0.28
2022-10-13T16:41:15.029Z,0.30
2022-10-13T16:43:45.065Z,0.00
2022-10-13T16:46:14.915Z,0.10
2022-10-13T16:48:44.636Z,0.10
2022-10-13T16:51:15.069Z,0.20
2022-10-13T16:53:43.620Z,0.10
2022-10-13T16:56:11.745Z,0.10
2022-10-13T16:58:44.923Z,0.10
2022-10-13T17:01:14.703Z,0.10
2022-10-13T17:03:45.069Z,0.10
2022-10-13T17:06:14.265Z,0.10
2022-10-13T17:08:43.495Z,0.10
2022-10-13T17:11:16.952Z,0.10
2022-10-13T17:13:45.270Z,0.10
2022-10-13T17:16:15.037Z,0.10
2022-10-13T17:18:45.778Z,0.10
2022-10-13T17:21:15.627Z,0.10
2022-10-13T17:23:48.384Z,0.10
2022-10-13T17:26:18.293Z,0.10
2022-10-13T17:28:47.178Z,0.10
2022-10-13T17:31:19.362Z,0.10
2022-10-13T17:33:49.385Z,0.10
2022-10-13T17:36:19.325Z,0.15
2022-10-13T17:38:49.443Z,0.10
2022-10-13T17:41:18.552Z,0.10
2022-10-13T17:43:50.785Z,0.10
2022-10-13T17:46:38.949Z,0.10
2022-10-13T17:49:08.362Z,0.10
2022-10-13T17:51:36.628Z,0.10
2022-10-13T17:54:20.552Z,0.10
2022-10-13T17:56:50.679Z,0.10
2022-10-13T17:59:20.039Z,0.10
2022-10-13T18:01:49.787Z,0.10
2022-10-13T18:04:19.910Z,0.10
2022-10-13T18:06:48.800Z,0.10
2022-10-13T18:09:19.342Z,0.10
2022-10-13T18:11:51.153Z,0.10
2022-10-13T18:14:20.185Z,0.15
2022-10-13T18:16:51.627Z,0.10
2022-10-13T18:19:20.677Z,0.10
2022-10-13T18:21:48.795Z,0.10
2022-10-13T18:24:16.790Z,0.10
2022-10-13T18:26:46.920Z,0.10
2022-10-13T18:29:15.569Z,0.10
2022-10-13T18:31:43.693Z,0.10
2022-10-13T18:34:15.600Z,0.10
2022-10-13T18:36:47.229Z,0.10
2022-10-13T18:39:32.846Z,0.10
2022-10-13T18:42:00.963Z,0.10
2022-10-13T18:44:35.367Z,0.10
2022-10-13T18:47:03.400Z,0.10
2022-10-13T18:49:35.016Z,0.10
2022-10-13T18:52:03.560Z,0.05
2022-10-13T18:54:31.931Z,0.10
2022-10-13T18:57:00.039Z,0.17
2022-10-13T18:59:27.979Z,0.10
2022-10-13T19:01:55.955Z,0.10
2022-10-13T19:04:26.151Z,0.10
2022-10-13T19:06:56.731Z,0.10
2022-10-13T19:12:18.617Z,0.10
2022-10-13T19:14:46.587Z,0.10
2022-10-13T19:17:14.591Z,0.10
2022-10-13T19:19:42.939Z,0.10
2022-10-13T19:22:15.139Z,0.10
2022-10-13T19:24:43.173Z,0.20
2022-10-13T19:27:12.010Z,0.25
2022-10-13T19:29:40.536Z,0.10
2022-10-13T19:32:08.415Z,0.30
2022-10-13T19:34:36.415Z,0.20
2022-10-13T19:37:07.315Z,0.13
2022-10-13T19:39:37.077Z,0.10
2022-10-13T19:42:05.400Z,0.10
2022-10-13T19:44:33.378Z,0.10
2022-10-13T19:47:01.405Z,0.10
2022-10-13T19:49:29.428Z,0.10
2022-10-13T19:51:57.502Z,0.10
2022-10-13T19:54:28.979Z,0.22
2022-10-13T19:57:01.292Z,0.10
2022-10-13T19:59:29.396Z,0.10
2022-10-13T20:01:58.866Z,0.10
2022-10-13T20:04:26.811Z,0.10
2022-10-13T20:06:54.729Z,0.10
2022-10-13T20:09:22.778Z,0.35
2022-10-13T20:11:52.786Z,0.10
2022-10-13T20:14:22.506Z,0.10
2022-10-13T20:16:50.516Z,0.10
2022-10-13T20:19:19.633Z,0.10
2022-10-13T20:21:51.689Z,0.20
2022-10-13T20:24:20.561Z,0.30
2022-10-13T20:26:48.681Z,0.20
2022-10-13T20:29:19.055Z,0.30
2022-10-13T20:31:48.486Z,0.10
2022-10-13T20:34:16.454Z,0.20
2022-10-13T20:36:45.604Z,0.25
2022-10-13T20:39:13.662Z,0.30
2022-10-13T20:41:41.583Z,0.20
2022-10-13T20:44:11.237Z,0.20
2022-10-13T20:46:40.031Z,0.10
2022-10-13T20:49:11.353Z,0.30
2022-10-13T20:51:40.802Z,0.20
2022-10-13T20:54:08.887Z,0.20
2022-10-13T20:56:36.961Z,0.22
2022-10-13T20:59:07.022Z,0.15
2022-10-13T21:01:35.662Z,0.10
2022-10-13T21:04:03.884Z,0.17
2022-10-13T21:06:33.245Z,0.20
2022-10-13T21:09:01.836Z,0.20
2022-10-13T21:11:29.845Z,0.10
2022-10-13T21:13:58.202Z,0.20
2022-10-13T21:16:29.332Z,0.30
2022-10-13T21:18:59.030Z,0.10
2022-10-13T21:21:28.632Z,0.10
2022-10-13T21:23:59.878Z,0.20
2022-10-13T21:26:30.021Z,0.17
2022-10-13T21:28:58.557Z,0.30
2022-10-13T21:31:27.457Z,0.10
2022-10-13T21:33:55.980Z,0.20
2022-10-13T21:36:26.031Z,0.13
2022-10-13T21:38:58.376Z,0.10
2022-10-13T21:41:27.171Z,0.30
2022-10-13T21:43:55.829Z,0.20
2022-10-13T21:46:25.961Z,0.20
2022-10-13T21:48:55.680Z,0.30
2022-10-13T21:51:25.886Z,0.13
2022-10-13T21:53:55.763Z,0.20
2022-10-13T21:56:26.863Z,0.20
2022-10-13T21:58:56.080Z,0.10
2022-10-13T22:01:24.666Z,0.20
2022-10-13T22:03:56.253Z,0.20
2022-10-13T22:06:28.064Z,0.20
2022-10-13T22:08:58.438Z,0.20
2022-10-13T22:11:29.936Z,0.20
2022-10-13T22:13:58.409Z,0.20
2022-10-13T22:16:28.938Z,0.20
2022-10-13T22:18:58.847Z,0.20
2022-10-13T22:21:29.083Z,0.15
2022-10-13T22:23:58.280Z,0.20
2022-10-13T22:26:29.733Z,0.20
2022-10-13T22:28:58.926Z,0.20
2022-10-13T22:31:27.859Z,0.30
2022-10-13T22:33:56.386Z,0.25
2022-10-13T22:36:26.621Z,0.30
2022-10-13T22:38:57.134Z,0.20
2022-10-13T22:41:25.526Z,0.95
2022-10-13T22:43:56.303Z,0.60
2022-10-13T22:46:26.163Z,0.30
2022-10-13T22:48:54.088Z,0.40
2022-10-13T22:51:23.867Z,0.50
2022-10-13T22:53:52.644Z,0.20
2022-10-13T22:56:22.869Z,0.30
2022-10-13T22:58:51.709Z,0.73
2022-10-13T23:01:22.031Z,0.20
2022-10-13T23:03:51.122Z,0.40
2022-10-13T23:06:20.975Z,0.65
2022-10-13T23:08:49.564Z,0.65
2022-10-13T23:11:18.140Z,0.68
2022-10-13T23:13:46.150Z,0.88
2022-10-13T23:16:16.704Z,0.90
2022-10-13T23:18:46.352Z,0.50
2022-10-13T23:21:26.010Z,0.75
2022-10-13T23:23:58.602Z,1.83
2022-10-13T23:26:27.481Z,0.82
2022-10-13T23:28:57.973Z,1.45
2022-10-13T23:31:27.492Z,1.52
2022-10-13T23:33:58.644Z,0.60
2022-10-13T23:36:29.099Z,1.70
2022-10-13T23:38:59.119Z,0.85
2022-10-13T23:41:27.735Z,1.70
2022-10-13T23:43:55.858Z,1.50
2022-10-13T23:46:23.950Z,2.63
2022-10-13T23:48:52.604Z,1.40
2022-10-13T23:51:23.473Z,1.73
2022-10-13T23:53:52.226Z,2.20
2022-10-13T23:56:20.246Z,1.45
2022-10-13T23:58:48.344Z,1.73
